Thomsen River, Northwest Territories

2:40 PM MDT on September 02, 2015 (GMT -0600)
Chesterfield Inlet | | Change Station
CLOSE
Current Station
Airport
Location: Thomsen River,
Elevation: 36 ft
Nearby Weather Stations

Elev 36 ft 63.33 °N, 90.72 °W | Updated 40 minutes ago

Overcast
Overcast
46 °F
Feels Like 42 °F
N
8
Wind Variable Wind from ESE

Today
High -- | Low -- °F
--% Chance of Precip.
Yesterday
High -- | Low -- °F
Precip. -- in
5:54 AM 9:57 PM
Waning Gibbous, 77% visible
Pressure 29.98 in
Visibility 15.0 miles
Clouds Overcast 3000 ft
Windchill 42 °F
Dew Point 43 °F
Humidity 87%
Rainfall 0.00 in
Snow Depth Not available.
UV 1 out of 12
Pollen Not available.
Air Quality Not available.
Flu Activity Not available.
METAR CYCS 022000Z 12007KT 15SM OVC030 08/06 A2998 RMK SC8 SLP152
Pressure 29.98 in
Visibility 15.0 miles
Clouds Overcast 3000 ft
Windchill 42 °F
Dew Point 43 °F
Humidity 87%
Rainfall 0.00 in
Snow Depth Not available.
UV 1 out of 12
Pollen Not available.
Air Quality Not available.
Flu Activity Not available.
METAR CYCS 022000Z 12007KT 15SM OVC030 08/06 A2998 RMK SC8 SLP152

10-Day Weather Forecast

×

Almanac

Astronomy

Sep. 02, 2015 Rise Set
Actual Time
Civil Twilight
Nautical Twilight
Astronomical Twilight
Moon
Length of Visible Light
Length of Day
Tomorrow will be .
, % of the Moon is Illuminated

Today's Extremes

Country Highs Country Lows

Community

WunderPhotos

Upload Photos

1,851,806 photos uploaded!

WunderBlogs® & News

Nearby

Air Quality

  Air Quality AQ Index Pollutant
Not available.

Snow Depth

Station Depth Elevation

Earthquake Activity

City Distance Mag. Time & Date
Minimum magnitude displayed is 2.5.

Coastal Water Temperatures

Place Temperature

Stations

Nearby Weather Stations

Station Location Temp. Windchill Dew Point Humidity Wind Precip. Elev Updated Type